UAL1013 KDEN-KLAX
Flight info
| Callsign | UAL1013 |
|---|---|
| Flight time | 1h 58m |
| Altitude | 32000 |
| Route | BAYLR6 TEHRU DCT JASSE Q90 DNERO ANJLL4 |
| Aircraft | A320/M-VGDW/C |
Departure
| Time | 2026-04-22 01:05 |
|---|---|
| Airport | Denver International Airport (KDEN) |
Arrival
| Time | 2026-04-22 03:03 |
|---|---|
| Airport | Los Angeles International Airport (KLAX) |
| Time | Latitude | Longitude | Altitude | Speed | Heading |
|---|---|---|---|---|---|
| 2026-04-22 00:33 | 39.85937 | -104.67528 | 5366 ft | 0 kts | 180° |
| 2026-04-22 00:52 | 39.85950 | -104.67528 | 5362 ft | 4 kts | 178° |
| 2026-04-22 00:53 | 39.85975 | -104.67530 | 5365 ft | 2 kts | 180° |
| 2026-04-22 00:53 | 39.85998 | -104.67530 | 5365 ft | 4 kts | 178° |
| 2026-04-22 00:53 | 39.86021 | -104.67531 | 5363 ft | 1 kts | 178° |
| 2026-04-22 00:57 | 39.86014 | -104.67527 | 5364 ft | 5 kts | 160° |
| 2026-04-22 00:57 | 39.86008 | -104.67473 | 5365 ft | 7 kts | 76° |
| 2026-04-22 00:57 | 39.86029 | -104.67411 | 5365 ft | 8 kts | 66° |
| 2026-04-22 00:57 | 39.86052 | -104.67339 | 5365 ft | 9 kts | 67° |
| 2026-04-22 00:58 | 39.86078 | -104.67259 | 5365 ft | 10 kts | 68° |
| 2026-04-22 00:58 | 39.86105 | -104.67170 | 5366 ft | 11 kts | 68° |
| 2026-04-22 00:58 | 39.86133 | -104.67071 | 5366 ft | 12 kts | 79° |
| 2026-04-22 00:58 | 39.86133 | -104.66960 | 5364 ft | 13 kts | 90° |
| 2026-04-22 00:59 | 39.86132 | -104.66843 | 5366 ft | 13 kts | 90° |
| 2026-04-22 00:59 | 39.86131 | -104.66717 | 5366 ft | 14 kts | 92° |
| 2026-04-22 00:59 | 39.86126 | -104.66586 | 5366 ft | 15 kts | 96° |
| 2026-04-22 00:59 | 39.86107 | -104.66450 | 5365 ft | 16 kts | 91° |
| 2026-04-22 01:00 | 39.86107 | -104.66307 | 5366 ft | 16 kts | 90° |
| 2026-04-22 01:00 | 39.86176 | -104.66228 | 5365 ft | 16 kts | 360° |
| 2026-04-22 01:00 | 39.86286 | -104.66228 | 5366 ft | 16 kts | 0° |
| 2026-04-22 01:00 | 39.86397 | -104.66227 | 5365 ft | 16 kts | 0° |
| 2026-04-22 01:01 | 39.86500 | -104.66189 | 5365 ft | 16 kts | 67° |
| 2026-04-22 01:01 | 39.86502 | -104.66046 | 5366 ft | 16 kts | 91° |
| 2026-04-22 01:01 | 39.86500 | -104.65895 | 5366 ft | 17 kts | 91° |
| 2026-04-22 01:01 | 39.86499 | -104.65739 | 5365 ft | 18 kts | 90° |
| 2026-04-22 01:02 | 39.86499 | -104.65578 | 5366 ft | 18 kts | 90° |
| 2026-04-22 01:02 | 39.86498 | -104.65412 | 5365 ft | 19 kts | 90° |
| 2026-04-22 01:02 | 39.86496 | -104.65242 | 5364 ft | 19 kts | 90° |
| 2026-04-22 01:02 | 39.86495 | -104.65067 | 5366 ft | 20 kts | 91° |
| 2026-04-22 01:03 | 39.86493 | -104.64888 | 5366 ft | 20 kts | 91° |
| 2026-04-22 01:03 | 39.86490 | -104.64706 | 5366 ft | 20 kts | 90° |
| 2026-04-22 01:03 | 39.86491 | -104.64521 | 5366 ft | 21 kts | 90° |
| 2026-04-22 01:03 | 39.86488 | -104.64335 | 5366 ft | 18 kts | 90° |
| 2026-04-22 01:04 | 39.86487 | -104.64212 | 5366 ft | 13 kts | 91° |
| 2026-04-22 01:04 | 39.86439 | -104.64125 | 5363 ft | 14 kts | 179° |
| 2026-04-22 01:04 | 39.86329 | -104.64127 | 5365 ft | 28 kts | 180° |
| 2026-04-22 01:04 | 39.85901 | -104.64133 | 5369 ft | 93 kts | 181° |
| 2026-04-22 01:05 | 39.85062 | -104.64138 | 5364 ft | 146 kts | 181° |
| 2026-04-22 01:05 | 39.83917 | -104.64162 | 5421 ft | 181 kts | 179° |
| 2026-04-22 01:05 | 39.82656 | -104.64195 | 6125 ft | 180 kts | 180° |
| 2026-04-22 01:05 | 39.81383 | -104.64263 | 6605 ft | 190 kts | 181° |
| 2026-04-22 01:06 | 39.80100 | -104.64638 | 7240 ft | 193 kts | 211° |
| 2026-04-22 01:06 | 39.79191 | -104.66014 | 7801 ft | 206 kts | 234° |
| 2026-04-22 01:06 | 39.78414 | -104.67608 | 8282 ft | 217 kts | 233° |
| 2026-04-22 01:06 | 39.77497 | -104.69222 | 8770 ft | 227 kts | 225° |
| 2026-04-22 01:07 | 39.76483 | -104.70888 | 9251 ft | 244 kts | 238° |
| 2026-04-22 01:07 | 39.75937 | -104.73060 | 9768 ft | 265 kts | 264° |
| 2026-04-22 01:07 | 39.76060 | -104.75510 | 10248 ft | 281 kts | 274° |
| 2026-04-22 01:07 | 39.76308 | -104.78094 | 10722 ft | 294 kts | 275° |
| 2026-04-22 01:08 | 39.76580 | -104.80775 | 11196 ft | 304 kts | 276° |
| 2026-04-22 01:08 | 39.76863 | -104.83530 | 11678 ft | 307 kts | 276° |
| 2026-04-22 01:08 | 39.77145 | -104.86293 | 12153 ft | 308 kts | 275° |
| 2026-04-22 01:08 | 39.77419 | -104.89060 | 12634 ft | 309 kts | 273° |
| 2026-04-22 01:09 | 39.77254 | -104.91778 | 13114 ft | 306 kts | 253° |
| 2026-04-22 01:09 | 39.76687 | -104.94454 | 13620 ft | 307 kts | 252° |
| 2026-04-22 01:09 | 39.76088 | -104.97163 | 14088 ft | 309 kts | 252° |
| 2026-04-22 01:09 | 39.75488 | -104.99843 | 14559 ft | 317 kts | 252° |
| 2026-04-22 01:10 | 39.74842 | -105.02630 | 14989 ft | 328 kts | 249° |
| 2026-04-22 01:10 | 39.74033 | -105.05448 | 15428 ft | 338 kts | 246° |
| 2026-04-22 01:10 | 39.73114 | -105.08314 | 15871 ft | 348 kts | 245° |
| 2026-04-22 01:10 | 39.72126 | -105.11244 | 16314 ft | 359 kts | 245° |
| 2026-04-22 01:11 | 39.71103 | -105.14244 | 16686 ft | 370 kts | 245° |
| 2026-04-22 01:11 | 39.70043 | -105.17361 | 17070 ft | 380 kts | 245° |
| 2026-04-22 01:11 | 39.68978 | -105.20531 | 17450 ft | 384 kts | 245° |
| 2026-04-22 01:11 | 39.67920 | -105.23724 | 17836 ft | 386 kts | 245° |
| 2026-04-22 01:12 | 39.66864 | -105.26939 | 18226 ft | 388 kts | 245° |
| 2026-04-22 01:12 | 39.65807 | -105.30172 | 18569 ft | 389 kts | 245° |
| 2026-04-22 01:12 | 39.65030 | -105.32538 | 18814 ft | 390 kts | 245° |
| 2026-04-22 01:12 | 39.63964 | -105.35778 | 19160 ft | 391 kts | 245° |
| 2026-04-22 01:13 | 39.62892 | -105.39029 | 19538 ft | 392 kts | 245° |
| 2026-04-22 01:13 | 39.61813 | -105.42295 | 19973 ft | 395 kts | 245° |
| 2026-04-22 01:13 | 39.60731 | -105.45574 | 20419 ft | 397 kts | 245° |
| 2026-04-22 01:13 | 39.59640 | -105.48883 | 20866 ft | 400 kts | 245° |
| 2026-04-22 01:14 | 39.58542 | -105.52202 | 21327 ft | 402 kts | 245° |
| 2026-04-22 01:14 | 39.57432 | -105.55540 | 21790 ft | 404 kts | 245° |
| 2026-04-22 01:14 | 39.56314 | -105.58899 | 22263 ft | 407 kts | 245° |
| 2026-04-22 01:14 | 39.55188 | -105.62297 | 22745 ft | 410 kts | 246° |
| 2026-04-22 01:15 | 39.54134 | -105.65747 | 23231 ft | 413 kts | 248° |
| 2026-04-22 01:15 | 39.53151 | -105.69251 | 23686 ft | 416 kts | 249° |
| 2026-04-22 01:15 | 39.52204 | -105.72799 | 24097 ft | 418 kts | 250° |
| 2026-04-22 01:15 | 39.51274 | -105.76326 | 24506 ft | 420 kts | 250° |
| 2026-04-22 01:16 | 39.50319 | -105.79899 | 24927 ft | 421 kts | 250° |
| 2026-04-22 01:16 | 39.49346 | -105.83482 | 25359 ft | 422 kts | 249° |
| 2026-04-22 01:16 | 39.48358 | -105.87061 | 25784 ft | 422 kts | 249° |
| 2026-04-22 01:16 | 39.47360 | -105.90642 | 26223 ft | 423 kts | 249° |
| 2026-04-22 01:17 | 39.46359 | -105.94216 | 26669 ft | 423 kts | 249° |
| 2026-04-22 01:17 | 39.45350 | -105.97804 | 27075 ft | 425 kts | 249° |
| 2026-04-22 01:17 | 39.44337 | -106.01400 | 27497 ft | 427 kts | 249° |
| 2026-04-22 01:17 | 39.43322 | -106.05010 | 27921 ft | 428 kts | 249° |
| 2026-04-22 01:18 | 39.42306 | -106.08630 | 28342 ft | 428 kts | 249° |
| 2026-04-22 01:18 | 39.41289 | -106.12247 | 28781 ft | 429 kts | 249° |
| 2026-04-22 01:18 | 39.40264 | -106.15870 | 29210 ft | 429 kts | 249° |
| 2026-04-22 01:18 | 39.39239 | -106.19496 | 29657 ft | 429 kts | 249° |
| 2026-04-22 01:19 | 39.38219 | -106.23116 | 30101 ft | 429 kts | 249° |
| 2026-04-22 01:19 | 39.37201 | -106.26734 | 30500 ft | 429 kts | 249° |
| 2026-04-22 01:19 | 39.36181 | -106.30351 | 30875 ft | 429 kts | 249° |
| 2026-04-22 01:19 | 39.35155 | -106.33978 | 31184 ft | 427 kts | 249° |
| 2026-04-22 01:20 | 39.34138 | -106.37563 | 31427 ft | 423 kts | 249° |
| 2026-04-22 01:20 | 39.33124 | -106.41133 | 31668 ft | 423 kts | 249° |
| 2026-04-22 01:20 | 39.32107 | -106.44705 | 31905 ft | 424 kts | 249° |
| 2026-04-22 01:20 | 39.31085 | -106.48292 | 32124 ft | 426 kts | 249° |
| 2026-04-22 01:21 | 39.29026 | -106.55484 | 32171 ft | 427 kts | 249° |
| 2026-04-22 01:21 | 39.26978 | -106.62619 | 32077 ft | 427 kts | 248° |
| 2026-04-22 01:22 | 39.24915 | -106.69802 | 32122 ft | 427 kts | 248° |
| 2026-04-22 01:22 | 39.23600 | -106.73214 | 32140 ft | 425 kts | 234° |
| 2026-04-22 01:22 | 39.21808 | -106.76257 | 32158 ft | 425 kts | 232° |
| 2026-04-22 01:23 | 39.18266 | -106.82372 | 32160 ft | 426 kts | 233° |
| 2026-04-22 01:23 | 39.14760 | -106.88526 | 32163 ft | 426 kts | 233° |
| 2026-04-22 01:24 | 39.11238 | -106.94655 | 32135 ft | 426 kts | 233° |
| 2026-04-22 01:24 | 39.07690 | -107.00770 | 32089 ft | 426 kts | 232° |
| 2026-04-22 01:25 | 39.04137 | -107.06868 | 32044 ft | 425 kts | 232° |
| 2026-04-22 01:25 | 39.00593 | -107.12950 | 31998 ft | 425 kts | 232° |
| 2026-04-22 01:26 | 38.97043 | -107.19030 | 31947 ft | 425 kts | 232° |
| 2026-04-22 01:26 | 38.93493 | -107.25110 | 31944 ft | 425 kts | 232° |
| 2026-04-22 01:27 | 38.89895 | -107.31248 | 31939 ft | 437 kts | 232° |
| 2026-04-22 01:27 | 38.86191 | -107.37551 | 31932 ft | 445 kts | 232° |
| 2026-04-22 01:28 | 38.82463 | -107.43893 | 31924 ft | 446 kts | 232° |
| 2026-04-22 01:28 | 38.78730 | -107.50239 | 31925 ft | 445 kts | 232° |
| 2026-04-22 01:29 | 38.74993 | -107.56569 | 31919 ft | 445 kts | 232° |
| 2026-04-22 01:29 | 38.71254 | -107.62882 | 31952 ft | 445 kts | 232° |
| 2026-04-22 01:30 | 38.67516 | -107.69194 | 31980 ft | 445 kts | 232° |
| 2026-04-22 01:30 | 38.63772 | -107.75496 | 32023 ft | 445 kts | 232° |
| 2026-04-22 01:31 | 38.60019 | -107.81805 | 32060 ft | 445 kts | 232° |
| 2026-04-22 01:31 | 38.56289 | -107.88066 | 32069 ft | 445 kts | 232° |
| 2026-04-22 01:32 | 38.52537 | -107.94355 | 32070 ft | 445 kts | 232° |
| 2026-04-22 01:32 | 38.48778 | -108.00650 | 32072 ft | 445 kts | 232° |
| 2026-04-22 01:33 | 38.45010 | -108.06929 | 32041 ft | 446 kts | 232° |
| 2026-04-22 01:33 | 38.41233 | -108.13209 | 32005 ft | 446 kts | 232° |
| 2026-04-22 01:34 | 38.37454 | -108.19482 | 31976 ft | 446 kts | 232° |
| 2026-04-22 01:34 | 38.33679 | -108.25743 | 31941 ft | 446 kts | 232° |
| 2026-04-22 01:35 | 38.29896 | -108.32006 | 31936 ft | 446 kts | 232° |
| 2026-04-22 01:35 | 38.26112 | -108.38269 | 31935 ft | 446 kts | 232° |
| 2026-04-22 01:36 | 38.22320 | -108.44524 | 31934 ft | 446 kts | 232° |
| 2026-04-22 01:36 | 38.18551 | -108.50729 | 31927 ft | 446 kts | 232° |
| 2026-04-22 01:37 | 38.14754 | -108.56959 | 31924 ft | 445 kts | 232° |
| 2026-04-22 01:37 | 38.10955 | -108.63173 | 31920 ft | 445 kts | 232° |
| 2026-04-22 01:38 | 38.07159 | -108.69393 | 31916 ft | 445 kts | 232° |
| 2026-04-22 01:38 | 38.03357 | -108.75601 | 31919 ft | 445 kts | 232° |
| 2026-04-22 01:39 | 37.99547 | -108.81805 | 31919 ft | 445 kts | 232° |
| 2026-04-22 01:39 | 37.95741 | -108.88010 | 31915 ft | 445 kts | 232° |
| 2026-04-22 01:40 | 37.91927 | -108.94203 | 31920 ft | 446 kts | 232° |
| 2026-04-22 01:40 | 37.88101 | -109.00394 | 31924 ft | 446 kts | 232° |
| 2026-04-22 01:41 | 37.84297 | -109.06547 | 31923 ft | 447 kts | 232° |
| 2026-04-22 01:41 | 37.80455 | -109.12748 | 31924 ft | 447 kts | 232° |
| 2026-04-22 01:42 | 37.76617 | -109.18932 | 31958 ft | 447 kts | 232° |
| 2026-04-22 01:42 | 37.72773 | -109.25118 | 31991 ft | 447 kts | 232° |
| 2026-04-22 01:43 | 37.68929 | -109.31287 | 32029 ft | 447 kts | 232° |
| 2026-04-22 01:43 | 37.65085 | -109.37447 | 32062 ft | 446 kts | 232° |
| 2026-04-22 01:44 | 37.61242 | -109.43594 | 32075 ft | 446 kts | 232° |
| 2026-04-22 01:44 | 37.57397 | -109.49737 | 32075 ft | 445 kts | 232° |
| 2026-04-22 01:45 | 37.53579 | -109.55831 | 32072 ft | 445 kts | 232° |
| 2026-04-22 01:45 | 37.49733 | -109.61945 | 32042 ft | 444 kts | 232° |
| 2026-04-22 01:46 | 37.45899 | -109.68038 | 31994 ft | 443 kts | 232° |
| 2026-04-22 01:46 | 37.42065 | -109.74111 | 31951 ft | 443 kts | 232° |
| 2026-04-22 01:47 | 37.38238 | -109.80168 | 31901 ft | 443 kts | 232° |
| 2026-04-22 01:47 | 37.34404 | -109.86221 | 31872 ft | 442 kts | 232° |
| 2026-04-22 01:48 | 37.30581 | -109.92242 | 31873 ft | 442 kts | 232° |
| 2026-04-22 01:48 | 37.26747 | -109.98268 | 31866 ft | 441 kts | 232° |
| 2026-04-22 01:49 | 37.22913 | -110.04292 | 31862 ft | 441 kts | 232° |
| 2026-04-22 01:49 | 37.19082 | -110.10312 | 31867 ft | 440 kts | 232° |
| 2026-04-22 01:50 | 37.15258 | -110.16300 | 31863 ft | 439 kts | 232° |
| 2026-04-22 01:50 | 37.11451 | -110.22226 | 31865 ft | 439 kts | 232° |
| 2026-04-22 01:51 | 37.07633 | -110.28175 | 31861 ft | 438 kts | 232° |
| 2026-04-22 01:51 | 37.03824 | -110.34118 | 31862 ft | 437 kts | 232° |
| 2026-04-22 01:52 | 37.00012 | -110.40048 | 31863 ft | 437 kts | 232° |
| 2026-04-22 01:52 | 36.96820 | -110.45000 | 31866 ft | 437 kts | 232° |
| 2026-04-22 01:53 | 36.93004 | -110.50898 | 31871 ft | 436 kts | 231° |
| 2026-04-22 01:53 | 36.89186 | -110.56799 | 31869 ft | 435 kts | 231° |
| 2026-04-22 01:54 | 36.85402 | -110.62635 | 31872 ft | 435 kts | 231° |
| 2026-04-22 01:54 | 36.81590 | -110.68509 | 31878 ft | 435 kts | 231° |
| 2026-04-22 01:55 | 36.77780 | -110.74369 | 31885 ft | 434 kts | 231° |
| 2026-04-22 01:55 | 36.73982 | -110.80202 | 31880 ft | 433 kts | 231° |
| 2026-04-22 01:56 | 36.70189 | -110.86025 | 31882 ft | 432 kts | 231° |
| 2026-04-22 01:56 | 36.66401 | -110.91819 | 31877 ft | 431 kts | 231° |
| 2026-04-22 01:57 | 36.62615 | -110.97598 | 31878 ft | 430 kts | 231° |
| 2026-04-22 01:57 | 36.58843 | -111.03350 | 31877 ft | 429 kts | 231° |
| 2026-04-22 01:58 | 36.55081 | -111.09086 | 31878 ft | 428 kts | 231° |
| 2026-04-22 01:58 | 36.51313 | -111.14807 | 31885 ft | 427 kts | 231° |
| 2026-04-22 01:59 | 36.47568 | -111.20470 | 31887 ft | 426 kts | 231° |
| 2026-04-22 01:59 | 36.43807 | -111.26168 | 31893 ft | 426 kts | 231° |
| 2026-04-22 02:00 | 36.40059 | -111.31844 | 31897 ft | 425 kts | 231° |
| 2026-04-22 02:00 | 36.36306 | -111.37507 | 31901 ft | 424 kts | 231° |
| 2026-04-22 02:01 | 36.32549 | -111.43161 | 31907 ft | 424 kts | 231° |
| 2026-04-22 02:01 | 36.28807 | -111.48794 | 31913 ft | 423 kts | 231° |
| 2026-04-22 02:02 | 36.25059 | -111.54421 | 31927 ft | 423 kts | 231° |
| 2026-04-22 02:02 | 36.21318 | -111.60036 | 31922 ft | 422 kts | 231° |
| 2026-04-22 02:03 | 36.17568 | -111.65641 | 31938 ft | 421 kts | 231° |
| 2026-04-22 02:03 | 36.13832 | -111.71226 | 31958 ft | 421 kts | 231° |
| 2026-04-22 02:04 | 36.08273 | -111.79554 | 31995 ft | 420 kts | 233° |
| 2026-04-22 02:05 | 36.05607 | -111.85956 | 32047 ft | 421 kts | 246° |
| 2026-04-22 02:05 | 36.03464 | -111.92702 | 32088 ft | 421 kts | 246° |
| 2026-04-22 02:06 | 36.01310 | -111.99425 | 32138 ft | 422 kts | 246° |
| 2026-04-22 02:06 | 35.99146 | -112.06158 | 32146 ft | 420 kts | 246° |
| 2026-04-22 02:07 | 35.96991 | -112.12855 | 32147 ft | 419 kts | 246° |
| 2026-04-22 02:07 | 35.94841 | -112.19543 | 32146 ft | 419 kts | 246° |
| 2026-04-22 02:08 | 35.92684 | -112.26219 | 32141 ft | 418 kts | 246° |
| 2026-04-22 02:08 | 35.90528 | -112.32875 | 32110 ft | 418 kts | 246° |
| 2026-04-22 02:09 | 35.88372 | -112.39536 | 32081 ft | 418 kts | 246° |
| 2026-04-22 02:09 | 35.86214 | -112.46191 | 32048 ft | 418 kts | 246° |
| 2026-04-22 02:10 | 35.84056 | -112.52837 | 32012 ft | 417 kts | 246° |
| 2026-04-22 02:10 | 35.81886 | -112.59467 | 31988 ft | 417 kts | 246° |
| 2026-04-22 02:11 | 35.79727 | -112.66057 | 31984 ft | 417 kts | 246° |
| 2026-04-22 02:11 | 35.77556 | -112.72682 | 31979 ft | 416 kts | 246° |
| 2026-04-22 02:12 | 35.75389 | -112.79284 | 31978 ft | 416 kts | 246° |
| 2026-04-22 02:12 | 35.73214 | -112.85890 | 31974 ft | 415 kts | 246° |
| 2026-04-22 02:13 | 35.71043 | -112.92470 | 31966 ft | 415 kts | 246° |
| 2026-04-22 02:13 | 35.68867 | -112.99042 | 31968 ft | 414 kts | 246° |
| 2026-04-22 02:14 | 35.66694 | -113.05597 | 31954 ft | 414 kts | 246° |
| 2026-04-22 02:14 | 35.64520 | -113.12132 | 31949 ft | 412 kts | 246° |
| 2026-04-22 02:15 | 35.62344 | -113.18658 | 31939 ft | 412 kts | 246° |
| 2026-04-22 02:15 | 35.60174 | -113.25165 | 31942 ft | 411 kts | 246° |
| 2026-04-22 02:16 | 35.58020 | -113.31626 | 31927 ft | 410 kts | 246° |
| 2026-04-22 02:16 | 35.55852 | -113.38108 | 31913 ft | 410 kts | 246° |
| 2026-04-22 02:17 | 35.53678 | -113.44579 | 31897 ft | 409 kts | 245° |
| 2026-04-22 02:17 | 35.51495 | -113.51034 | 31900 ft | 409 kts | 245° |
| 2026-04-22 02:18 | 35.49317 | -113.57484 | 31883 ft | 409 kts | 246° |
| 2026-04-22 02:18 | 35.47149 | -113.63930 | 31897 ft | 409 kts | 245° |
| 2026-04-22 02:19 | 35.44973 | -113.70368 | 31923 ft | 408 kts | 245° |
| 2026-04-22 02:19 | 35.42789 | -113.76793 | 31944 ft | 408 kts | 245° |
| 2026-04-22 02:20 | 35.40607 | -113.83201 | 31965 ft | 407 kts | 245° |
| 2026-04-22 02:20 | 35.38436 | -113.89567 | 31989 ft | 407 kts | 245° |
| 2026-04-22 02:21 | 35.36254 | -113.95951 | 32000 ft | 406 kts | 245° |
| 2026-04-22 02:21 | 35.34079 | -114.02322 | 31997 ft | 405 kts | 245° |
| 2026-04-22 02:22 | 35.31902 | -114.08682 | 31979 ft | 404 kts | 245° |
| 2026-04-22 02:22 | 35.29722 | -114.15031 | 31950 ft | 404 kts | 245° |
| 2026-04-22 02:23 | 35.27539 | -114.21370 | 31924 ft | 404 kts | 245° |
| 2026-04-22 02:23 | 35.25357 | -114.27693 | 31843 ft | 403 kts | 245° |
| 2026-04-22 02:24 | 35.23173 | -114.34008 | 31850 ft | 402 kts | 245° |
| 2026-04-22 02:24 | 35.21002 | -114.40273 | 31857 ft | 402 kts | 245° |
| 2026-04-22 02:25 | 35.18811 | -114.46579 | 31865 ft | 402 kts | 245° |
| 2026-04-22 02:25 | 35.16619 | -114.52881 | 31864 ft | 402 kts | 245° |
| 2026-04-22 02:26 | 35.14423 | -114.59167 | 31861 ft | 401 kts | 245° |
| 2026-04-22 02:26 | 35.12252 | -114.65394 | 31854 ft | 400 kts | 245° |
| 2026-04-22 02:27 | 35.10081 | -114.71653 | 31853 ft | 400 kts | 245° |
| 2026-04-22 02:27 | 35.07907 | -114.77914 | 31856 ft | 400 kts | 245° |
| 2026-04-22 02:28 | 35.05728 | -114.84165 | 31855 ft | 401 kts | 245° |
| 2026-04-22 02:28 | 35.03545 | -114.90390 | 31864 ft | 400 kts | 244° |
| 2026-04-22 02:29 | 35.01088 | -114.96480 | 31873 ft | 400 kts | 241° |
| 2026-04-22 02:29 | 34.98418 | -115.02444 | 31884 ft | 400 kts | 240° |
| 2026-04-22 02:30 | 34.95758 | -115.08399 | 31887 ft | 400 kts | 241° |
| 2026-04-22 02:30 | 34.93142 | -115.14379 | 31898 ft | 400 kts | 241° |
| 2026-04-22 02:31 | 34.90540 | -115.20374 | 31908 ft | 400 kts | 241° |
| 2026-04-22 02:31 | 34.87937 | -115.26358 | 31680 ft | 398 kts | 241° |
| 2026-04-22 02:31 | 34.86642 | -115.29326 | 31435 ft | 397 kts | 241° |
| 2026-04-22 02:32 | 34.85350 | -115.32291 | 31189 ft | 395 kts | 242° |
| 2026-04-22 02:32 | 34.84079 | -115.35203 | 30950 ft | 394 kts | 241° |
| 2026-04-22 02:32 | 34.82795 | -115.38136 | 30713 ft | 392 kts | 241° |
| 2026-04-22 02:32 | 34.81511 | -115.41065 | 30474 ft | 391 kts | 241° |
| 2026-04-22 02:33 | 34.80230 | -115.43982 | 30240 ft | 390 kts | 241° |
| 2026-04-22 02:33 | 34.78965 | -115.46893 | 30012 ft | 389 kts | 243° |
| 2026-04-22 02:33 | 34.77792 | -115.49843 | 29744 ft | 387 kts | 244° |
| 2026-04-22 02:33 | 34.76693 | -115.52833 | 29467 ft | 386 kts | 245° |
| 2026-04-22 02:34 | 34.75632 | -115.55835 | 29192 ft | 385 kts | 246° |
| 2026-04-22 02:34 | 34.74583 | -115.58820 | 28925 ft | 384 kts | 246° |
| 2026-04-22 02:34 | 34.73526 | -115.61793 | 28654 ft | 382 kts | 245° |
| 2026-04-22 02:34 | 34.72457 | -115.64752 | 28386 ft | 381 kts | 245° |
| 2026-04-22 02:35 | 34.71379 | -115.67692 | 28181 ft | 381 kts | 245° |
| 2026-04-22 02:35 | 34.70287 | -115.70642 | 28024 ft | 384 kts | 245° |
| 2026-04-22 02:35 | 34.69183 | -115.73610 | 27869 ft | 385 kts | 245° |
| 2026-04-22 02:35 | 34.68080 | -115.76572 | 27714 ft | 385 kts | 245° |
| 2026-04-22 02:36 | 34.66978 | -115.79531 | 27561 ft | 384 kts | 245° |
| 2026-04-22 02:36 | 34.65880 | -115.82489 | 27405 ft | 384 kts | 245° |
| 2026-04-22 02:36 | 34.65155 | -115.84445 | 27302 ft | 383 kts | 245° |
| 2026-04-22 02:36 | 34.64062 | -115.87398 | 27150 ft | 383 kts | 245° |
| 2026-04-22 02:37 | 34.62970 | -115.90341 | 26998 ft | 382 kts | 245° |
| 2026-04-22 02:37 | 34.61878 | -115.93289 | 26851 ft | 382 kts | 245° |
| 2026-04-22 02:37 | 34.60793 | -115.96234 | 26698 ft | 381 kts | 245° |
| 2026-04-22 02:37 | 34.59708 | -115.99182 | 26551 ft | 388 kts | 245° |
| 2026-04-22 02:38 | 34.58588 | -116.02226 | 26405 ft | 401 kts | 245° |
| 2026-04-22 02:38 | 34.57441 | -116.05339 | 26251 ft | 405 kts | 245° |
| 2026-04-22 02:38 | 34.56286 | -116.08465 | 26108 ft | 406 kts | 245° |
| 2026-04-22 02:38 | 34.55113 | -116.11626 | 25959 ft | 415 kts | 245° |
| 2026-04-22 02:39 | 34.53922 | -116.14831 | 25813 ft | 418 kts | 245° |
| 2026-04-22 02:39 | 34.52727 | -116.18046 | 25662 ft | 419 kts | 245° |
| 2026-04-22 02:39 | 34.51536 | -116.21262 | 25520 ft | 418 kts | 245° |
| 2026-04-22 02:39 | 34.50348 | -116.24474 | 25377 ft | 418 kts | 245° |
| 2026-04-22 02:40 | 34.49157 | -116.27686 | 25230 ft | 418 kts | 245° |
| 2026-04-22 02:40 | 34.47962 | -116.30897 | 25090 ft | 418 kts | 245° |
| 2026-04-22 02:40 | 34.46768 | -116.34095 | 24949 ft | 417 kts | 245° |
| 2026-04-22 02:40 | 34.45571 | -116.37300 | 24805 ft | 417 kts | 245° |
| 2026-04-22 02:41 | 34.44377 | -116.40498 | 24666 ft | 417 kts | 245° |
| 2026-04-22 02:41 | 34.43182 | -116.43695 | 24526 ft | 417 kts | 245° |
| 2026-04-22 02:41 | 34.41986 | -116.46889 | 24387 ft | 416 kts | 245° |
| 2026-04-22 02:41 | 34.40769 | -116.50069 | 24247 ft | 416 kts | 244° |
| 2026-04-22 02:42 | 34.39506 | -116.53209 | 24110 ft | 415 kts | 244° |
| 2026-04-22 02:42 | 34.38208 | -116.56340 | 23938 ft | 415 kts | 243° |
| 2026-04-22 02:42 | 34.36901 | -116.59447 | 23959 ft | 415 kts | 243° |
| 2026-04-22 02:42 | 34.35590 | -116.62556 | 23967 ft | 415 kts | 243° |
| 2026-04-22 02:43 | 34.34284 | -116.65670 | 23969 ft | 415 kts | 244° |
| 2026-04-22 02:43 | 34.32982 | -116.68800 | 23973 ft | 416 kts | 244° |
| 2026-04-22 02:43 | 34.31722 | -116.71893 | 23945 ft | 416 kts | 244° |
| 2026-04-22 02:43 | 34.30443 | -116.75078 | 23485 ft | 413 kts | 245° |
| 2026-04-22 02:44 | 34.29229 | -116.78124 | 22964 ft | 401 kts | 245° |
| 2026-04-22 02:44 | 34.28035 | -116.81115 | 22450 ft | 390 kts | 245° |
| 2026-04-22 02:44 | 34.26872 | -116.84017 | 21936 ft | 380 kts | 245° |
| 2026-04-22 02:44 | 34.25728 | -116.86865 | 21441 ft | 372 kts | 245° |
| 2026-04-22 02:45 | 34.24592 | -116.89682 | 20955 ft | 365 kts | 245° |
| 2026-04-22 02:45 | 34.23500 | -116.92383 | 20483 ft | 360 kts | 245° |
| 2026-04-22 02:45 | 34.22406 | -116.95084 | 20013 ft | 356 kts | 245° |
| 2026-04-22 02:45 | 34.21332 | -116.97762 | 19552 ft | 353 kts | 246° |
| 2026-04-22 02:46 | 34.20420 | -117.00501 | 19095 ft | 350 kts | 250° |
| 2026-04-22 02:46 | 34.19627 | -117.03265 | 18627 ft | 347 kts | 251° |
| 2026-04-22 02:46 | 34.18899 | -117.06040 | 18148 ft | 345 kts | 252° |
| 2026-04-22 02:46 | 34.18196 | -117.08803 | 17628 ft | 342 kts | 252° |
| 2026-04-22 02:47 | 34.17498 | -117.11526 | 17183 ft | 338 kts | 252° |
| 2026-04-22 02:47 | 34.16793 | -117.14224 | 17098 ft | 337 kts | 252° |
| 2026-04-22 02:47 | 34.16071 | -117.16934 | 17119 ft | 339 kts | 251° |
| 2026-04-22 02:47 | 34.15336 | -117.19638 | 17113 ft | 338 kts | 251° |
| 2026-04-22 02:48 | 34.14596 | -117.22328 | 17120 ft | 339 kts | 251° |
| 2026-04-22 02:48 | 34.13850 | -117.25024 | 17122 ft | 338 kts | 251° |
| 2026-04-22 02:48 | 34.13103 | -117.27723 | 17119 ft | 338 kts | 251° |
| 2026-04-22 02:48 | 34.12357 | -117.30417 | 17114 ft | 338 kts | 251° |
| 2026-04-22 02:49 | 34.11619 | -117.33076 | 17122 ft | 338 kts | 251° |
| 2026-04-22 02:49 | 34.10871 | -117.35768 | 17124 ft | 339 kts | 251° |
| 2026-04-22 02:49 | 34.10130 | -117.38462 | 17114 ft | 338 kts | 252° |
| 2026-04-22 02:49 | 34.09430 | -117.41177 | 17119 ft | 338 kts | 252° |
| 2026-04-22 02:50 | 34.08759 | -117.43900 | 17105 ft | 338 kts | 253° |
| 2026-04-22 02:50 | 34.08097 | -117.46621 | 17107 ft | 338 kts | 253° |
| 2026-04-22 02:50 | 34.07437 | -117.49329 | 17064 ft | 332 kts | 254° |
| 2026-04-22 02:50 | 34.06882 | -117.52011 | 16575 ft | 327 kts | 256° |
| 2026-04-22 02:51 | 34.06409 | -117.54687 | 16007 ft | 326 kts | 257° |
| 2026-04-22 02:51 | 34.05976 | -117.57355 | 15443 ft | 324 kts | 257° |
| 2026-04-22 02:51 | 34.05556 | -117.60020 | 14891 ft | 322 kts | 257° |
| 2026-04-22 02:51 | 34.05136 | -117.62670 | 14347 ft | 320 kts | 257° |
| 2026-04-22 02:52 | 34.04712 | -117.65295 | 13803 ft | 318 kts | 257° |
| 2026-04-22 02:52 | 34.04286 | -117.67872 | 13209 ft | 317 kts | 256° |
| 2026-04-22 02:52 | 34.03849 | -117.70462 | 12631 ft | 315 kts | 256° |
| 2026-04-22 02:52 | 34.03407 | -117.73043 | 12056 ft | 308 kts | 256° |
| 2026-04-22 02:53 | 34.02978 | -117.75541 | 11485 ft | 294 kts | 256° |
| 2026-04-22 02:53 | 34.02577 | -117.77879 | 10937 ft | 283 kts | 256° |
| 2026-04-22 02:53 | 34.02186 | -117.80166 | 10384 ft | 275 kts | 256° |
| 2026-04-22 02:53 | 34.01805 | -117.82392 | 9828 ft | 268 kts | 256° |
| 2026-04-22 02:54 | 34.01490 | -117.84213 | 9320 ft | 263 kts | 256° |
| 2026-04-22 02:54 | 34.01128 | -117.86321 | 8726 ft | 257 kts | 256° |
| 2026-04-22 02:54 | 34.00761 | -117.88454 | 8146 ft | 263 kts | 256° |
| 2026-04-22 02:54 | 34.00382 | -117.90645 | 7566 ft | 270 kts | 257° |
| 2026-04-22 02:55 | 34.00004 | -117.92850 | 6990 ft | 266 kts | 258° |
| 2026-04-22 02:55 | 33.99636 | -117.95014 | 6428 ft | 262 kts | 257° |
| 2026-04-22 02:55 | 33.99269 | -117.97154 | 5830 ft | 259 kts | 258° |
| 2026-04-22 02:55 | 33.98908 | -117.99261 | 5252 ft | 256 kts | 258° |
| 2026-04-22 02:56 | 33.98547 | -118.01351 | 4680 ft | 253 kts | 258° |
| 2026-04-22 02:56 | 33.98196 | -118.03368 | 4517 ft | 245 kts | 258° |
| 2026-04-22 02:56 | 33.97861 | -118.05294 | 4371 ft | 245 kts | 258° |
| 2026-04-22 02:56 | 33.97518 | -118.07279 | 4205 ft | 234 kts | 259° |
| 2026-04-22 02:57 | 33.97199 | -118.09121 | 4050 ft | 215 kts | 258° |
| 2026-04-22 02:57 | 33.96902 | -118.10824 | 3902 ft | 202 kts | 259° |
| 2026-04-22 02:57 | 33.96582 | -118.12457 | 3752 ft | 200 kts | 254° |
| 2026-04-22 02:57 | 33.96243 | -118.14081 | 3596 ft | 199 kts | 261° |
| 2026-04-22 02:58 | 33.96025 | -118.15719 | 3452 ft | 196 kts | 263° |
| 2026-04-22 02:58 | 33.95858 | -118.17281 | 3338 ft | 178 kts | 264° |
| 2026-04-22 02:58 | 33.95711 | -118.18722 | 3257 ft | 172 kts | 264° |
| 2026-04-22 02:58 | 33.95570 | -118.20128 | 3079 ft | 167 kts | 264° |
| 2026-04-22 02:59 | 33.95433 | -118.21491 | 2880 ft | 162 kts | 263° |
| 2026-04-22 02:59 | 33.95299 | -118.22819 | 2678 ft | 158 kts | 263° |
| 2026-04-22 02:59 | 33.95169 | -118.24111 | 2459 ft | 150 kts | 264° |
| 2026-04-22 02:59 | 33.95049 | -118.25301 | 2267 ft | 137 kts | 264° |
| 2026-04-22 03:00 | 33.94938 | -118.26406 | 2101 ft | 131 kts | 265° |
| 2026-04-22 03:00 | 33.94829 | -118.27480 | 1919 ft | 129 kts | 265° |
| 2026-04-22 03:00 | 33.94722 | -118.28538 | 1755 ft | 126 kts | 264° |
| 2026-04-22 03:00 | 33.94617 | -118.29570 | 1587 ft | 126 kts | 265° |
| 2026-04-22 03:01 | 33.94503 | -118.30620 | 1422 ft | 127 kts | 264° |
| 2026-04-22 03:01 | 33.94386 | -118.31690 | 1281 ft | 132 kts | 263° |
| 2026-04-22 03:01 | 33.94273 | -118.32804 | 1132 ft | 135 kts | 263° |
| 2026-04-22 03:01 | 33.94166 | -118.33923 | 973 ft | 134 kts | 263° |
| 2026-04-22 03:02 | 33.94050 | -118.35033 | 768 ft | 135 kts | 264° |
| 2026-04-22 03:02 | 33.93936 | -118.36174 | 547 ft | 137 kts | 263° |
| 2026-04-22 03:02 | 33.93819 | -118.37304 | 351 ft | 134 kts | 262° |
| 2026-04-22 03:02 | 33.93718 | -118.38411 | 143 ft | 132 kts | 262° |
| 2026-04-22 03:03 | 33.93618 | -118.39390 | 111 ft | 101 kts | 264° |
| 2026-04-22 03:03 | 33.93544 | -118.40137 | 112 ft | 72 kts | 262° |
| 2026-04-22 03:03 | 33.93500 | -118.40590 | 112 ft | 29 kts | 264° |
| 2026-04-22 03:03 | 33.93520 | -118.40726 | 111 ft | 12 kts | 325° |
| 2026-04-22 03:04 | 33.93588 | -118.40761 | 106 ft | 10 kts | 306° |
| 2026-04-22 03:04 | 33.93601 | -118.40811 | 105 ft | 3 kts | 286° |
| 2026-04-22 03:04 | 33.93614 | -118.40861 | 105 ft | 9 kts | 291° |
| 2026-04-22 03:04 | 33.93664 | -118.40896 | 108 ft | 9 kts | 350° |
| 2026-04-22 03:05 | 33.93741 | -118.40907 | 106 ft | 14 kts | 353° |
| 2026-04-22 03:05 | 33.93861 | -118.40907 | 98 ft | 19 kts | 39° |
| 2026-04-22 03:05 | 33.93884 | -118.40748 | 100 ft | 21 kts | 84° |
| 2026-04-22 03:05 | 33.93903 | -118.40566 | 98 ft | 23 kts | 83° |
| 2026-04-22 03:06 | 33.93928 | -118.40367 | 98 ft | 25 kts | 81° |
| 2026-04-22 03:06 | 33.93945 | -118.40146 | 98 ft | 28 kts | 82° |
| 2026-04-22 03:06 | 33.93965 | -118.39959 | 100 ft | 15 kts | 85° |
| 2026-04-22 03:06 | 33.94000 | -118.39902 | 97 ft | 8 kts | 13° |
| 2026-04-22 03:07 | 33.94030 | -118.39905 | 98 ft | 3 kts | 359° |
| 2026-04-22 03:07 | 33.94043 | -118.39906 | 96 ft | 1 kts | 354° |
| 2026-04-22 03:07 | 33.94044 | -118.39906 | 96 ft | 0 kts | 354° |